sensor_id;sensor_type;location;lat;lon;timestamp;P1;durP1;ratioP1;P2;durP2;ratioP2
17171;SDS011;8701;50.150;8.756;2022-11-13T00:04:13;8.40;;;4.60;;
17171;SDS011;8701;50.150;8.756;2022-11-13T00:08:35;4.53;;;3.97;;
17171;SDS011;8701;50.150;8.756;2022-11-13T00:12:56;6.73;;;3.73;;
17171;SDS011;8701;50.150;8.756;2022-11-13T00:17:17;4.20;;;3.80;;
17171;SDS011;8701;50.150;8.756;2022-11-13T00:21:38;10.57;;;4.07;;
17171;SDS011;8701;50.150;8.756;2022-11-13T00:26:03;4.07;;;3.77;;
17171;SDS011;8701;50.150;8.756;2022-11-13T00:30:25;4.07;;;3.67;;
17171;SDS011;8701;50.150;8.756;2022-11-13T00:34:46;7.50;;;3.90;;
17171;SDS011;8701;50.150;8.756;2022-11-13T00:39:07;10.73;;;3.80;;
17171;SDS011;8701;50.150;8.756;2022-11-13T00:43:29;3.40;;;3.13;;
17171;SDS011;8701;50.150;8.756;2022-11-13T00:47:51;3.30;;;3.10;;
17171;SDS011;8701;50.150;8.756;2022-11-13T00:52:11;5.50;;;3.93;;
17171;SDS011;8701;50.150;8.756;2022-11-13T00:56:33;5.77;;;4.60;;
17171;SDS011;8701;50.150;8.756;2022-11-13T01:01:01;4.23;;;3.83;;
17171;SDS011;8701;50.150;8.756;2022-11-13T01:05:23;18.03;;;4.73;;
17171;SDS011;8701;50.150;8.756;2022-11-13T01:09:48;16.00;;;4.23;;
17171;SDS011;8701;50.150;8.756;2022-11-13T01:14:09;5.90;;;4.10;;
17171;SDS011;8701;50.150;8.756;2022-11-13T01:18:31;11.83;;;4.77;;
17171;SDS011;8701;50.150;8.756;2022-11-13T01:22:52;4.37;;;3.73;;
17171;SDS011;8701;50.150;8.756;2022-11-13T01:27:14;4.00;;;3.60;;
17171;SDS011;8701;50.150;8.756;2022-11-13T01:31:35;8.10;;;3.83;;
17171;SDS011;8701;50.150;8.756;2022-11-13T01:36:00;9.87;;;3.83;;
17171;SDS011;8701;50.150;8.756;2022-11-13T01:40:22;5.60;;;3.77;;
17171;SDS011;8701;50.150;8.756;2022-11-13T01:44:47;7.87;;;3.83;;
17171;SDS011;8701;50.150;8.756;2022-11-13T01:49:14;4.40;;;3.97;;
17171;SDS011;8701;50.150;8.756;2022-11-13T01:53:44;8.87;;;4.23;;
17171;SDS011;8701;50.150;8.756;2022-11-13T01:58:07;12.07;;;3.83;;
17171;SDS011;8701;50.150;8.756;2022-11-13T02:02:30;16.10;;;3.90;;
17171;SDS011;8701;50.150;8.756;2022-11-13T02:06:52;4.40;;;4.00;;
17171;SDS011;8701;50.150;8.756;2022-11-13T02:11:16;14.77;;;4.60;;
17171;SDS011;8701;50.150;8.756;2022-11-13T02:15:38;29.50;;;4.57;;
17171;SDS011;8701;50.150;8.756;2022-11-13T02:20:01;19.43;;;3.80;;
17171;SDS011;8701;50.150;8.756;2022-11-13T02:24:28;10.97;;;3.57;;
17171;SDS011;8701;50.150;8.756;2022-11-13T02:28:51;5.87;;;3.70;;
17171;SDS011;8701;50.150;8.756;2022-11-13T02:33:18;9.13;;;3.50;;
17171;SDS011;8701;50.150;8.756;2022-11-13T02:37:41;10.13;;;3.40;;
17171;SDS011;8701;50.150;8.756;2022-11-13T02:42:04;3.90;;;3.60;;
17171;SDS011;8701;50.150;8.756;2022-11-13T02:46:25;3.53;;;3.17;;
17171;SDS011;8701;50.150;8.756;2022-11-13T02:50:46;3.30;;;3.00;;
17171;SDS011;8701;50.150;8.756;2022-11-13T02:55:07;5.43;;;2.50;;
17171;SDS011;8701;50.150;8.756;2022-11-13T02:59:29;16.00;;;7.87;;
17171;SDS011;8701;50.150;8.756;2022-11-13T03:03:50;7.50;;;5.60;;
17171;SDS011;8701;50.150;8.756;2022-11-13T03:08:11;4.70;;;4.00;;
17171;SDS011;8701;50.150;8.756;2022-11-13T03:12:32;6.70;;;3.40;;
17171;SDS011;8701;50.150;8.756;2022-11-13T03:16:55;3.67;;;3.40;;
17171;SDS011;8701;50.150;8.756;2022-11-13T03:21:15;3.80;;;3.50;;
17171;SDS011;8701;50.150;8.756;2022-11-13T03:25:36;3.93;;;3.63;;
17171;SDS011;8701;50.150;8.756;2022-11-13T03:29:57;3.50;;;3.20;;
17171;SDS011;8701;50.150;8.756;2022-11-13T03:34:20;3.53;;;3.23;;
17171;SDS011;8701;50.150;8.756;2022-11-13T03:38:42;3.60;;;3.30;;
17171;SDS011;8701;50.150;8.756;2022-11-13T03:43:03;4.10;;;3.70;;
17171;SDS011;8701;50.150;8.756;2022-11-13T03:47:24;3.60;;;3.30;;
17171;SDS011;8701;50.150;8.756;2022-11-13T03:51:46;3.27;;;3.07;;
17171;SDS011;8701;50.150;8.756;2022-11-13T03:56:07;3.80;;;3.50;;
17171;SDS011;8701;50.150;8.756;2022-11-13T04:00:28;3.63;;;3.33;;
17171;SDS011;8701;50.150;8.756;2022-11-13T04:04:49;3.73;;;3.43;;
17171;SDS011;8701;50.150;8.756;2022-11-13T04:09:11;3.60;;;3.30;;
17171;SDS011;8701;50.150;8.756;2022-11-13T04:13:32;3.33;;;3.03;;
17171;SDS011;8701;50.150;8.756;2022-11-13T04:17:53;3.30;;;3.00;;
17171;SDS011;8701;50.150;8.756;2022-11-13T04:22:14;3.70;;;3.20;;
17171;SDS011;8701;50.150;8.756;2022-11-13T04:26:38;2.93;;;2.73;;
17171;SDS011;8701;50.150;8.756;2022-11-13T04:30:59;3.03;;;2.83;;
17171;SDS011;8701;50.150;8.756;2022-11-13T04:35:20;3.30;;;3.00;;
17171;SDS011;8701;50.150;8.756;2022-11-13T04:39:41;3.77;;;2.93;;
17171;SDS011;8701;50.150;8.756;2022-11-13T04:44:03;3.47;;;3.17;;
17171;SDS011;8701;50.150;8.756;2022-11-13T04:48:24;4.50;;;2.90;;
17171;SDS011;8701;50.150;8.756;2022-11-13T04:52:46;3.23;;;3.00;;
17171;SDS011;8701;50.150;8.756;2022-11-13T04:57:07;3.40;;;2.90;;
17171;SDS011;8701;50.150;8.756;2022-11-13T05:01:29;3.00;;;2.70;;
17171;SDS011;8701;50.150;8.756;2022-11-13T05:05:50;3.20;;;3.00;;
17171;SDS011;8701;50.150;8.756;2022-11-13T05:10:11;3.00;;;2.80;;
17171;SDS011;8701;50.150;8.756;2022-11-13T05:14:32;2.70;;;2.60;;
17171;SDS011;8701;50.150;8.756;2022-11-13T05:18:54;2.70;;;2.50;;
17171;SDS011;8701;50.150;8.756;2022-11-13T05:23:17;2.87;;;2.67;;
17171;SDS011;8701;50.150;8.756;2022-11-13T05:27:38;3.33;;;3.03;;
17171;SDS011;8701;50.150;8.756;2022-11-13T05:31:59;3.10;;;2.90;;
17171;SDS011;8701;50.150;8.756;2022-11-13T05:36:21;3.43;;;3.13;;
17171;SDS011;8701;50.150;8.756;2022-11-13T05:40:43;3.60;;;3.30;;
17171;SDS011;8701;50.150;8.756;2022-11-13T05:45:04;3.17;;;2.97;;
17171;SDS011;8701;50.150;8.756;2022-11-13T05:49:25;3.80;;;3.50;;
17171;SDS011;8701;50.150;8.756;2022-11-13T05:53:48;4.30;;;3.27;;
17171;SDS011;8701;50.150;8.756;2022-11-13T05:58:09;3.57;;;3.27;;
17171;SDS011;8701;50.150;8.756;2022-11-13T06:02:30;3.60;;;3.30;;
17171;SDS011;8701;50.150;8.756;2022-11-13T06:06:51;3.10;;;2.90;;
17171;SDS011;8701;50.150;8.756;2022-11-13T06:11:14;3.50;;;3.20;;
17171;SDS011;8701;50.150;8.756;2022-11-13T06:15:37;4.33;;;3.23;;
17171;SDS011;8701;50.150;8.756;2022-11-13T06:19:57;3.17;;;2.97;;
17171;SDS011;8701;50.150;8.756;2022-11-13T06:24:18;4.20;;;3.80;;
17171;SDS011;8701;50.150;8.756;2022-11-13T06:28:41;3.10;;;2.90;;
17171;SDS011;8701;50.150;8.756;2022-11-13T06:33:03;3.43;;;3.20;;
17171;SDS011;8701;50.150;8.756;2022-11-13T06:37:24;4.50;;;3.30;;
17171;SDS011;8701;50.150;8.756;2022-11-13T06:41:44;3.57;;;3.27;;
17171;SDS011;8701;50.150;8.756;2022-11-13T06:46:08;2.93;;;2.73;;
17171;SDS011;8701;50.150;8.756;2022-11-13T06:50:32;3.80;;;3.20;;
17171;SDS011;8701;50.150;8.756;2022-11-13T06:54:53;3.70;;;3.40;;
17171;SDS011;8701;50.150;8.756;2022-11-13T06:59:14;3.67;;;3.33;;
17171;SDS011;8701;50.150;8.756;2022-11-13T07:03:36;4.00;;;3.30;;
17171;SDS011;8701;50.150;8.756;2022-11-13T07:07:57;3.50;;;3.20;;
17171;SDS011;8701;50.150;8.756;2022-11-13T07:12:18;3.20;;;2.90;;
17171;SDS011;8701;50.150;8.756;2022-11-13T07:16:39;3.67;;;3.37;;
17171;SDS011;8701;50.150;8.756;2022-11-13T07:21:03;3.27;;;3.00;;
17171;SDS011;8701;50.150;8.756;2022-11-13T07:25:26;3.33;;;3.03;;
17171;SDS011;8701;50.150;8.756;2022-11-13T07:29:51;4.13;;;3.33;;
17171;SDS011;8701;50.150;8.756;2022-11-13T07:34:12;4.70;;;3.60;;
17171;SDS011;8701;50.150;8.756;2022-11-13T07:38:35;3.57;;;3.27;;
17171;SDS011;8701;50.150;8.756;2022-11-13T07:42:56;4.83;;;3.80;;
17171;SDS011;8701;50.150;8.756;2022-11-13T07:47:18;4.70;;;4.30;;
17171;SDS011;8701;50.150;8.756;2022-11-13T07:51:39;6.03;;;4.17;;
17171;SDS011;8701;50.150;8.756;2022-11-13T07:56:01;5.03;;;4.03;;
17171;SDS011;8701;50.150;8.756;2022-11-13T08:00:23;5.60;;;4.53;;
17171;SDS011;8701;50.150;8.756;2022-11-13T08:04:44;4.97;;;3.90;;
17171;SDS011;8701;50.150;8.756;2022-11-13T08:09:05;5.20;;;3.63;;
17171;SDS011;8701;50.150;8.756;2022-11-13T08:13:27;4.00;;;3.60;;
17171;SDS011;8701;50.150;8.756;2022-11-13T08:17:52;4.63;;;3.93;;
17171;SDS011;8701;50.150;8.756;2022-11-13T08:22:13;4.77;;;3.87;;
17171;SDS011;8701;50.150;8.756;2022-11-13T08:26:35;5.40;;;4.80;;
17171;SDS011;8701;50.150;8.756;2022-11-13T08:30:59;5.90;;;3.80;;
17171;SDS011;8701;50.150;8.756;2022-11-13T08:35:21;7.37;;;4.37;;
17171;SDS011;8701;50.150;8.756;2022-11-13T08:39:42;5.00;;;4.50;;
17171;SDS011;8701;50.150;8.756;2022-11-13T08:44:03;5.17;;;4.37;;
17171;SDS011;8701;50.150;8.756;2022-11-13T08:48:25;5.97;;;4.83;;
17171;SDS011;8701;50.150;8.756;2022-11-13T08:52:46;6.60;;;5.20;;
17171;SDS011;8701;50.150;8.756;2022-11-13T08:57:07;5.03;;;4.40;;
17171;SDS011;8701;50.150;8.756;2022-11-13T09:01:28;5.57;;;4.93;;
17171;SDS011;8701;50.150;8.756;2022-11-13T09:05:51;5.33;;;4.83;;
17171;SDS011;8701;50.150;8.756;2022-11-13T09:10:11;7.23;;;5.70;;
17171;SDS011;8701;50.150;8.756;2022-11-13T09:14:33;5.80;;;5.20;;
17171;SDS011;8701;50.150;8.756;2022-11-13T09:18:54;7.40;;;4.93;;
17171;SDS011;8701;50.150;8.756;2022-11-13T09:23:17;6.40;;;5.20;;
17171;SDS011;8701;50.150;8.756;2022-11-13T09:27:38;5.00;;;4.60;;
17171;SDS011;8701;50.150;8.756;2022-11-13T09:31:59;10.83;;;5.83;;
17171;SDS011;8701;50.150;8.756;2022-11-13T09:36:20;8.43;;;4.80;;
17171;SDS011;8701;50.150;8.756;2022-11-13T09:40:45;5.23;;;4.73;;
17171;SDS011;8701;50.150;8.756;2022-11-13T09:45:11;8.57;;;5.00;;
17171;SDS011;8701;50.150;8.756;2022-11-13T09:49:35;6.00;;;5.07;;
17171;SDS011;8701;50.150;8.756;2022-11-13T09:54:01;9.47;;;5.27;;
17171;SDS011;8701;50.150;8.756;2022-11-13T09:58:27;5.50;;;5.00;;
17171;SDS011;8701;50.150;8.756;2022-11-13T10:03:08;6.00;;;4.73;;
17171;SDS011;8701;50.150;8.756;2022-11-13T10:07:46;5.37;;;4.87;;
17171;SDS011;8701;50.150;8.756;2022-11-13T10:12:14;5.53;;;4.90;;
17171;SDS011;8701;50.150;8.756;2022-11-13T10:16:38;6.77;;;5.30;;
17171;SDS011;8701;50.150;8.756;2022-11-13T10:21:05;5.90;;;4.47;;
17171;SDS011;8701;50.150;8.756;2022-11-13T10:25:35;4.60;;;4.20;;
17171;SDS011;8701;50.150;8.756;2022-11-13T10:29:57;11.60;;;4.47;;
17171;SDS011;8701;50.150;8.756;2022-11-13T10:34:21;6.20;;;5.20;;
17171;SDS011;8701;50.150;8.756;2022-11-13T10:38:42;5.37;;;4.80;;
17171;SDS011;8701;50.150;8.756;2022-11-13T10:43:12;6.10;;;4.50;;
17171;SDS011;8701;50.150;8.756;2022-11-13T10:47:35;6.33;;;4.50;;
17171;SDS011;8701;50.150;8.756;2022-11-13T10:52:15;4.60;;;4.20;;
17171;SDS011;8701;50.150;8.756;2022-11-13T10:56:37;4.73;;;4.17;;
17171;SDS011;8701;50.150;8.756;2022-11-13T11:00:58;5.70;;;4.40;;
17171;SDS011;8701;50.150;8.756;2022-11-13T11:05:20;5.90;;;4.00;;
17171;SDS011;8701;50.150;8.756;2022-11-13T11:09:44;6.33;;;4.93;;
17171;SDS011;8701;50.150;8.756;2022-11-13T11:14:14;4.70;;;4.20;;
17171;SDS011;8701;50.150;8.756;2022-11-13T11:18:39;4.47;;;4.07;;
17171;SDS011;8701;50.150;8.756;2022-11-13T11:23:06;6.50;;;4.63;;
17171;SDS011;8701;50.150;8.756;2022-11-13T11:27:40;4.33;;;3.93;;
17171;SDS011;8701;50.150;8.756;2022-11-13T11:32:06;3.93;;;3.63;;
17171;SDS011;8701;50.150;8.756;2022-11-13T11:36:34;4.73;;;4.10;;
17171;SDS011;8701;50.150;8.756;2022-11-13T11:41:02;4.57;;;4.17;;
17171;SDS011;8701;50.150;8.756;2022-11-13T11:45:30;11.13;;;3.80;;
17171;SDS011;8701;50.150;8.756;2022-11-13T11:49:55;3.60;;;3.17;;
17171;SDS011;8701;50.150;8.756;2022-11-13T11:54:19;4.33;;;3.50;;
17171;SDS011;8701;50.150;8.756;2022-11-13T11:58:54;3.83;;;3.53;;
17171;SDS011;8701;50.150;8.756;2022-11-13T12:08:21;7.00;;;3.63;;
17171;SDS011;8701;50.150;8.756;2022-11-13T12:12:53;3.50;;;3.30;;
17171;SDS011;8701;50.150;8.756;2022-11-13T12:17:30;4.10;;;3.70;;
17171;SDS011;8701;50.150;8.756;2022-11-13T12:22:02;3.83;;;3.53;;
17171;SDS011;8701;50.150;8.756;2022-11-13T12:26:33;4.13;;;3.53;;
17171;SDS011;8701;50.150;8.756;2022-11-13T12:31:02;4.30;;;4.00;;
17171;SDS011;8701;50.150;8.756;2022-11-13T12:35:29;5.50;;;3.90;;
17171;SDS011;8701;50.150;8.756;2022-11-13T12:39:52;4.00;;;3.60;;
17171;SDS011;8701;50.150;8.756;2022-11-13T12:44:19;4.40;;;3.80;;
17171;SDS011;8701;50.150;8.756;2022-11-13T12:48:43;8.10;;;3.53;;
17171;SDS011;8701;50.150;8.756;2022-11-13T12:53:09;4.23;;;3.83;;
17171;SDS011;8701;50.150;8.756;2022-11-13T12:57:33;8.60;;;4.30;;
17171;SDS011;8701;50.150;8.756;2022-11-13T13:01:55;6.23;;;4.47;;
17171;SDS011;8701;50.150;8.756;2022-11-13T13:06:33;6.03;;;4.33;;
17171;SDS011;8701;50.150;8.756;2022-11-13T13:11:10;4.67;;;4.20;;
17171;SDS011;8701;50.150;8.756;2022-11-13T13:15:36;9.40;;;3.80;;
17171;SDS011;8701;50.150;8.756;2022-11-13T13:20:00;6.50;;;4.17;;
17171;SDS011;8701;50.150;8.756;2022-11-13T13:24:30;6.57;;;4.30;;
17171;SDS011;8701;50.150;8.756;2022-11-13T13:28:54;5.10;;;4.60;;
17171;SDS011;8701;50.150;8.756;2022-11-13T13:33:19;7.63;;;3.83;;
17171;SDS011;8701;50.150;8.756;2022-11-13T13:37:48;5.07;;;3.00;;
17171;SDS011;8701;50.150;8.756;2022-11-13T13:42:17;8.27;;;3.70;;
17171;SDS011;8701;50.150;8.756;2022-11-13T13:46:50;3.30;;;3.00;;
17171;SDS011;8701;50.150;8.756;2022-11-13T13:51:15;3.40;;;3.00;;
17171;SDS011;8701;50.150;8.756;2022-11-13T13:55:45;3.23;;;2.87;;
17171;SDS011;8701;50.150;8.756;2022-11-13T14:00:09;3.33;;;3.03;;
17171;SDS011;8701;50.150;8.756;2022-11-13T14:04:32;4.40;;;3.50;;
17171;SDS011;8701;50.150;8.756;2022-11-13T14:09:09;5.97;;;4.10;;
17171;SDS011;8701;50.150;8.756;2022-11-13T14:13:36;4.70;;;3.93;;
17171;SDS011;8701;50.150;8.756;2022-11-13T14:18:04;6.67;;;4.40;;
17171;SDS011;8701;50.150;8.756;2022-11-13T14:22:26;4.33;;;3.93;;
17171;SDS011;8701;50.150;8.756;2022-11-13T14:26:49;4.47;;;4.03;;
17171;SDS011;8701;50.150;8.756;2022-11-13T14:31:11;4.07;;;3.67;;
17171;SDS011;8701;50.150;8.756;2022-11-13T14:35:34;4.07;;;3.67;;
17171;SDS011;8701;50.150;8.756;2022-11-13T14:39:59;4.97;;;4.37;;
17171;SDS011;8701;50.150;8.756;2022-11-13T14:44:27;6.40;;;3.80;;
17171;SDS011;8701;50.150;8.756;2022-11-13T14:48:50;4.27;;;3.77;;
17171;SDS011;8701;50.150;8.756;2022-11-13T14:53:13;6.10;;;4.00;;
17171;SDS011;8701;50.150;8.756;2022-11-13T14:57:46;4.73;;;4.10;;
17171;SDS011;8701;50.150;8.756;2022-11-13T15:02:09;5.03;;;4.40;;
17171;SDS011;8701;50.150;8.756;2022-11-13T15:06:35;5.43;;;4.33;;
17171;SDS011;8701;50.150;8.756;2022-11-13T15:10:57;5.17;;;4.23;;
17171;SDS011;8701;50.150;8.756;2022-11-13T15:15:19;7.53;;;4.43;;
17171;SDS011;8701;50.150;8.756;2022-11-13T15:19:43;6.47;;;3.90;;
17171;SDS011;8701;50.150;8.756;2022-11-13T15:24:08;5.47;;;4.30;;
17171;SDS011;8701;50.150;8.756;2022-11-13T15:28:29;5.90;;;4.53;;
17171;SDS011;8701;50.150;8.756;2022-11-13T15:32:50;6.80;;;4.10;;
17171;SDS011;8701;50.150;8.756;2022-11-13T15:37:14;5.33;;;4.60;;
17171;SDS011;8701;50.150;8.756;2022-11-13T15:41:36;8.30;;;4.70;;
17171;SDS011;8701;50.150;8.756;2022-11-13T15:45:57;5.50;;;4.10;;
17171;SDS011;8701;50.150;8.756;2022-11-13T15:50:22;6.43;;;4.30;;
17171;SDS011;8701;50.150;8.756;2022-11-13T15:54:44;5.10;;;4.50;;
17171;SDS011;8701;50.150;8.756;2022-11-13T15:59:07;6.40;;;5.00;;
17171;SDS011;8701;50.150;8.756;2022-11-13T16:03:30;5.33;;;4.83;;
17171;SDS011;8701;50.150;8.756;2022-11-13T16:07:57;6.43;;;4.87;;
17171;SDS011;8701;50.150;8.756;2022-11-13T16:12:19;7.73;;;5.23;;
17171;SDS011;8701;50.150;8.756;2022-11-13T16:16:40;7.07;;;5.37;;
17171;SDS011;8701;50.150;8.756;2022-11-13T16:21:02;5.90;;;5.07;;
17171;SDS011;8701;50.150;8.756;2022-11-13T16:25:22;9.03;;;6.50;;
17171;SDS011;8701;50.150;8.756;2022-11-13T16:29:45;7.10;;;5.77;;
17171;SDS011;8701;50.150;8.756;2022-11-13T16:34:06;18.17;;;9.90;;
17171;SDS011;8701;50.150;8.756;2022-11-13T16:38:26;21.87;;;13.40;;
17171;SDS011;8701;50.150;8.756;2022-11-13T16:42:48;25.73;;;15.23;;
17171;SDS011;8701;50.150;8.756;2022-11-13T16:47:16;23.40;;;14.33;;
17171;SDS011;8701;50.150;8.756;2022-11-13T16:51:41;20.60;;;13.47;;
17171;SDS011;8701;50.150;8.756;2022-11-13T16:56:04;10.90;;;8.00;;
17171;SDS011;8701;50.150;8.756;2022-11-13T17:00:30;6.27;;;5.17;;
17171;SDS011;8701;50.150;8.756;2022-11-13T17:04:55;8.60;;;5.90;;
17171;SDS011;8701;50.150;8.756;2022-11-13T17:09:16;8.30;;;6.50;;
17171;SDS011;8701;50.150;8.756;2022-11-13T17:13:37;9.67;;;6.97;;
17171;SDS011;8701;50.150;8.756;2022-11-13T17:17:58;9.70;;;5.27;;
17171;SDS011;8701;50.150;8.756;2022-11-13T17:22:20;6.93;;;5.90;;
17171;SDS011;8701;50.150;8.756;2022-11-13T17:26:41;6.33;;;4.97;;
17171;SDS011;8701;50.150;8.756;2022-11-13T17:31:03;6.53;;;5.47;;
17171;SDS011;8701;50.150;8.756;2022-11-13T17:35:25;8.10;;;5.57;;
17171;SDS011;8701;50.150;8.756;2022-11-13T17:39:47;7.17;;;5.80;;
17171;SDS011;8701;50.150;8.756;2022-11-13T17:44:08;8.93;;;5.70;;
17171;SDS011;8701;50.150;8.756;2022-11-13T17:48:30;6.77;;;4.83;;
17171;SDS011;8701;50.150;8.756;2022-11-13T17:52:52;7.13;;;5.20;;
17171;SDS011;8701;50.150;8.756;2022-11-13T17:57:14;9.23;;;5.50;;
17171;SDS011;8701;50.150;8.756;2022-11-13T18:01:35;6.80;;;5.53;;
17171;SDS011;8701;50.150;8.756;2022-11-13T18:05:56;8.80;;;5.70;;
17171;SDS011;8701;50.150;8.756;2022-11-13T18:10:17;7.10;;;5.67;;
17171;SDS011;8701;50.150;8.756;2022-11-13T18:14:39;7.73;;;6.00;;
17171;SDS011;8701;50.150;8.756;2022-11-13T18:19:00;9.27;;;7.87;;
17171;SDS011;8701;50.150;8.756;2022-11-13T18:27:35;17.00;;;13.00;;
17171;SDS011;8701;50.150;8.756;2022-11-13T18:31:58;18.40;;;12.90;;
17171;SDS011;8701;50.150;8.756;2022-11-13T18:36:19;19.97;;;13.13;;
17171;SDS011;8701;50.150;8.756;2022-11-13T18:40:40;23.23;;;14.63;;
17171;SDS011;8701;50.150;8.756;2022-11-13T18:45:01;22.73;;;11.77;;
17171;SDS011;8701;50.150;8.756;2022-11-13T18:49:24;27.17;;;14.27;;
17171;SDS011;8701;50.150;8.756;2022-11-13T18:53:45;22.50;;;14.80;;
17171;SDS011;8701;50.150;8.756;2022-11-13T18:58:07;22.43;;;13.30;;
17171;SDS011;8701;50.150;8.756;2022-11-13T19:02:28;20.20;;;13.10;;
17171;SDS011;8701;50.150;8.756;2022-11-13T19:06:51;16.60;;;11.90;;
17171;SDS011;8701;50.150;8.756;2022-11-13T19:11:12;20.13;;;13.77;;
17171;SDS011;8701;50.150;8.756;2022-11-13T19:15:35;23.20;;;14.03;;
17171;SDS011;8701;50.150;8.756;2022-11-13T19:19:57;24.67;;;13.37;;
17171;SDS011;8701;50.150;8.756;2022-11-13T19:24:19;26.50;;;18.87;;
17171;SDS011;8701;50.150;8.756;2022-11-13T19:28:40;23.90;;;15.70;;
17171;SDS011;8701;50.150;8.756;2022-11-13T19:33:00;25.67;;;16.67;;
17171;SDS011;8701;50.150;8.756;2022-11-13T19:37:21;18.40;;;12.93;;
17171;SDS011;8701;50.150;8.756;2022-11-13T19:41:44;24.43;;;17.83;;
17171;SDS011;8701;50.150;8.756;2022-11-13T19:46:05;20.90;;;13.70;;
17171;SDS011;8701;50.150;8.756;2022-11-13T19:50:27;17.70;;;12.40;;
17171;SDS011;8701;50.150;8.756;2022-11-13T19:54:48;17.70;;;11.80;;
17171;SDS011;8701;50.150;8.756;2022-11-13T19:59:10;16.97;;;12.00;;
17171;SDS011;8701;50.150;8.756;2022-11-13T20:03:31;16.70;;;12.03;;
17171;SDS011;8701;50.150;8.756;2022-11-13T20:07:52;17.37;;;11.57;;
17171;SDS011;8701;50.150;8.756;2022-11-13T20:12:16;16.67;;;11.67;;
17171;SDS011;8701;50.150;8.756;2022-11-13T20:16:38;19.97;;;12.83;;
17171;SDS011;8701;50.150;8.756;2022-11-13T20:20:59;21.57;;;13.10;;
17171;SDS011;8701;50.150;8.756;2022-11-13T20:25:20;32.03;;;14.20;;
17171;SDS011;8701;50.150;8.756;2022-11-13T20:29:41;17.73;;;11.23;;
17171;SDS011;8701;50.150;8.756;2022-11-13T20:34:03;12.23;;;8.40;;
17171;SDS011;8701;50.150;8.756;2022-11-13T20:38:24;12.90;;;9.73;;
17171;SDS011;8701;50.150;8.756;2022-11-13T20:42:46;17.60;;;11.40;;
17171;SDS011;8701;50.150;8.756;2022-11-13T20:47:06;17.00;;;10.10;;
17171;SDS011;8701;50.150;8.756;2022-11-13T20:51:29;14.43;;;9.57;;
17171;SDS011;8701;50.150;8.756;2022-11-13T20:55:50;14.20;;;9.37;;
17171;SDS011;8701;50.150;8.756;2022-11-13T21:00:11;14.50;;;8.63;;
17171;SDS011;8701;50.150;8.756;2022-11-13T21:04:33;11.13;;;7.47;;
17171;SDS011;8701;50.150;8.756;2022-11-13T21:08:55;12.27;;;7.10;;
17171;SDS011;8701;50.150;8.756;2022-11-13T21:13:16;10.00;;;6.70;;
17171;SDS011;8701;50.150;8.756;2022-11-13T21:17:37;12.53;;;6.80;;
17171;SDS011;8701;50.150;8.756;2022-11-13T21:21:58;10.20;;;6.50;;
17171;SDS011;8701;50.150;8.756;2022-11-13T21:26:21;10.13;;;7.20;;
17171;SDS011;8701;50.150;8.756;2022-11-13T21:30:43;10.13;;;7.20;;
17171;SDS011;8701;50.150;8.756;2022-11-13T21:35:04;13.23;;;8.90;;
17171;SDS011;8701;50.150;8.756;2022-11-13T21:39:25;12.03;;;8.90;;
17171;SDS011;8701;50.150;8.756;2022-11-13T21:43:47;12.00;;;7.93;;
17171;SDS011;8701;50.150;8.756;2022-11-13T21:48:08;12.67;;;7.73;;
17171;SDS011;8701;50.150;8.756;2022-11-13T21:52:29;13.63;;;8.40;;
17171;SDS011;8701;50.150;8.756;2022-11-13T21:56:50;16.40;;;9.50;;
17171;SDS011;8701;50.150;8.756;2022-11-13T22:01:12;20.60;;;10.37;;
17171;SDS011;8701;50.150;8.756;2022-11-13T22:05:34;15.50;;;10.10;;
17171;SDS011;8701;50.150;8.756;2022-11-13T22:09:55;13.87;;;8.57;;
17171;SDS011;8701;50.150;8.756;2022-11-13T22:14:16;13.43;;;8.80;;
17171;SDS011;8701;50.150;8.756;2022-11-13T22:18:38;14.33;;;8.40;;
17171;SDS011;8701;50.150;8.756;2022-11-13T22:22:59;20.53;;;10.70;;
17171;SDS011;8701;50.150;8.756;2022-11-13T22:27:20;13.13;;;10.20;;
17171;SDS011;8701;50.150;8.756;2022-11-13T22:31:41;17.37;;;10.43;;
17171;SDS011;8701;50.150;8.756;2022-11-13T22:36:05;20.23;;;11.37;;
17171;SDS011;8701;50.150;8.756;2022-11-13T22:40:27;14.40;;;10.10;;
17171;SDS011;8701;50.150;8.756;2022-11-13T22:44:48;14.53;;;9.40;;
17171;SDS011;8701;50.150;8.756;2022-11-13T22:49:09;12.50;;;7.77;;
17171;SDS011;8701;50.150;8.756;2022-11-13T22:53:32;12.47;;;8.57;;
17171;SDS011;8701;50.150;8.756;2022-11-13T22:57:53;13.30;;;10.00;;
17171;SDS011;8701;50.150;8.756;2022-11-13T23:02:17;12.57;;;8.90;;
17171;SDS011;8701;50.150;8.756;2022-11-13T23:06:38;17.60;;;9.30;;
17171;SDS011;8701;50.150;8.756;2022-11-13T23:11:00;20.40;;;9.40;;
17171;SDS011;8701;50.150;8.756;2022-11-13T23:15:21;12.37;;;9.03;;
17171;SDS011;8701;50.150;8.756;2022-11-13T23:19:42;13.53;;;8.60;;
17171;SDS011;8701;50.150;8.756;2022-11-13T23:24:03;14.47;;;8.67;;
17171;SDS011;8701;50.150;8.756;2022-11-13T23:28:26;14.70;;;9.40;;
17171;SDS011;8701;50.150;8.756;2022-11-13T23:32:47;16.43;;;9.73;;
17171;SDS011;8701;50.150;8.756;2022-11-13T23:37:08;14.47;;;10.07;;
17171;SDS011;8701;50.150;8.756;2022-11-13T23:41:29;12.80;;;9.20;;
17171;SDS011;8701;50.150;8.756;2022-11-13T23:45:52;18.57;;;9.73;;
17171;SDS011;8701;50.150;8.756;2022-11-13T23:50:12;15.97;;;9.00;;
17171;SDS011;8701;50.150;8.756;2022-11-13T23:54:33;14.80;;;9.00;;
17171;SDS011;8701;50.150;8.756;2022-11-13T23:58:54;15.03;;;9.77;;
